createdAt,value
2018-08-24T00:00:14.676Z,65.32
2018-08-24T00:02:45.354Z,65.67
2018-08-24T00:05:16.001Z,66.06
2018-08-24T00:07:46.640Z,66.11
2018-08-24T00:10:17.309Z,67.31
2018-08-24T00:12:48.011Z,67.57
2018-08-24T00:15:18.660Z,68.70
2018-08-24T00:17:49.296Z,69.40
2018-08-24T00:20:19.988Z,69.52
2018-08-24T00:22:50.655Z,69.75
2018-08-24T00:25:21.332Z,70.54
2018-08-24T00:27:52.399Z,70.80
2018-08-24T00:30:23.116Z,71.03
2018-08-24T00:32:53.803Z,70.87
2018-08-24T00:35:24.427Z,70.61
2018-08-24T00:37:55.129Z,70.67
2018-08-24T00:40:25.739Z,72.56
2018-08-24T00:42:56.470Z,74.09
2018-08-24T00:45:27.113Z,74.15
2018-08-24T00:47:57.730Z,74.65
2018-08-24T00:50:28.360Z,75.36
2018-08-24T00:52:58.997Z,75.17
2018-08-24T00:55:29.676Z,75.87
2018-08-24T00:58:00.310Z,76.43
2018-08-24T01:00:45.377Z,76.37
2018-08-24T01:03:16.050Z,77.37
2018-08-24T01:05:46.719Z,77.56
2018-08-24T01:08:17.418Z,78.44
2018-08-24T01:10:48.078Z,78.00
2018-08-24T01:13:18.779Z,78.59
2018-08-24T01:15:55.321Z,79.13
2018-08-24T01:18:31.075Z,79.67
2018-08-24T01:21:01.769Z,79.22
2018-08-24T01:23:33.641Z,79.67
2018-08-24T01:26:04.413Z,79.77
2018-08-24T01:28:35.148Z,79.93
2018-08-24T01:31:09.594Z,80.38
2018-08-24T01:33:40.224Z,80.81
2018-08-24T01:36:10.853Z,81.44
2018-08-24T01:38:41.538Z,81.48
2018-08-24T01:41:12.281Z,82.12
2018-08-24T01:43:42.907Z,81.95
2018-08-24T01:46:15.044Z,82.08
2018-08-24T01:48:45.655Z,81.86
2018-08-24T01:51:16.309Z,81.22
2018-08-24T01:53:46.971Z,81.03
2018-08-24T01:56:17.603Z,81.60
2018-08-24T01:58:48.236Z,81.07
2018-08-24T02:01:18.970Z,81.70
2018-08-24T02:03:49.627Z,81.45
2018-08-24T02:06:20.319Z,81.48
2018-08-24T02:08:51.001Z,81.58
2018-08-24T02:11:26.803Z,80.66
2018-08-24T02:14:02.587Z,80.81
2018-08-24T02:16:34.430Z,81.01
2018-08-24T02:19:10.271Z,81.45
2018-08-24T02:21:46.156Z,81.86
2018-08-24T02:24:16.785Z,81.08
2018-08-24T02:26:47.812Z,81.38
2018-08-24T02:29:18.366Z,82.12
2018-08-24T02:31:51.844Z,82.72
2018-08-24T02:34:22.482Z,82.17
2018-08-24T02:36:53.265Z,82.43
2018-08-24T02:39:23.898Z,82.33
2018-08-24T02:41:54.619Z,82.15
2018-08-24T02:44:25.264Z,82.44
2018-08-24T02:46:55.905Z,82.79
2018-08-24T02:49:26.580Z,82.40
2018-08-24T02:51:57.260Z,82.99
2018-08-24T02:54:28.041Z,82.78
2018-08-24T02:56:58.687Z,83.11
2018-08-24T02:59:29.358Z,82.49
2018-08-24T03:01:59.981Z,83.06
2018-08-24T03:04:30.668Z,83.28
2018-08-24T03:07:01.343Z,83.20
2018-08-24T03:13:05.932Z,83.77
2018-08-24T03:15:36.623Z,84.58
2018-08-24T03:18:07.287Z,84.41
2018-08-24T03:20:37.932Z,84.70
2018-08-24T03:23:08.561Z,85.15
2018-08-24T03:25:39.207Z,85.04
2018-08-24T03:28:09.865Z,85.01
2018-08-24T03:30:40.519Z,84.94
2018-08-24T03:33:11.145Z,85.06
2018-08-24T03:35:41.855Z,85.72
2018-08-24T03:38:18.716Z,85.82
2018-08-24T03:40:49.354Z,86.32
2018-08-24T03:43:20.027Z,85.62
2018-08-24T03:45:50.796Z,85.82
2018-08-24T03:48:21.434Z,86.49
2018-08-24T03:50:52.074Z,86.98
2018-08-24T03:53:22.841Z,86.64
2018-08-24T03:55:53.340Z,86.26
2018-08-24T03:58:24.067Z,86.23
2018-08-24T04:00:58.250Z,86.46
2018-08-24T04:03:29.839Z,86.38
2018-08-24T04:06:00.476Z,85.91
2018-08-24T04:08:32.498Z,85.73
2018-08-24T04:11:03.198Z,86.23
2018-08-24T04:13:33.968Z,85.49
2018-08-24T04:16:04.661Z,86.12
2018-08-24T04:18:35.308Z,86.40
2018-08-24T04:21:06.035Z,86.08
2018-08-24T04:23:36.702Z,85.50
2018-08-24T04:26:07.548Z,85.12
2018-08-24T04:28:38.114Z,85.15
2018-08-24T04:31:08.801Z,85.91
2018-08-24T04:33:39.436Z,85.18
2018-08-24T04:36:10.076Z,84.90
2018-08-24T04:38:40.696Z,84.96
2018-08-24T04:41:11.381Z,84.73
2018-08-24T04:43:42.065Z,84.35
2018-08-24T04:46:12.679Z,84.50
2018-08-24T04:48:43.318Z,84.42
2018-08-24T04:51:13.997Z,83.96
2018-08-24T04:53:44.773Z,83.69
2018-08-24T04:56:15.449Z,83.88
2018-08-24T04:58:46.144Z,84.17
2018-08-24T05:01:16.752Z,83.79
2018-08-24T05:03:47.447Z,83.64
2018-08-24T05:06:18.278Z,82.91
2018-08-24T05:08:48.974Z,82.53
2018-08-24T05:11:19.708Z,82.78
2018-08-24T05:13:50.323Z,82.69
2018-08-24T05:16:21.028Z,81.60
2018-08-24T05:18:51.751Z,81.03
2018-08-24T05:21:22.573Z,81.35
2018-08-24T05:23:53.221Z,82.29
2018-08-24T05:26:23.894Z,81.79
2018-08-24T05:28:54.524Z,81.53
2018-08-24T05:31:25.215Z,81.99
2018-08-24T05:33:55.854Z,82.05
2018-08-24T05:36:26.587Z,81.80
2018-08-24T05:38:57.301Z,81.29
2018-08-24T05:41:28.046Z,82.21
2018-08-24T05:43:58.587Z,83.05
2018-08-24T05:46:29.324Z,83.20
2018-08-24T05:48:59.964Z,83.31
2018-08-24T05:51:30.670Z,84.08
2018-08-24T05:54:01.305Z,83.46
2018-08-24T05:56:32.010Z,83.72
2018-08-24T05:59:02.667Z,83.78
2018-08-24T06:01:33.428Z,83.75
2018-08-24T06:04:04.057Z,82.64
2018-08-24T06:06:34.776Z,82.96
2018-08-24T06:09:12.371Z,82.91
2018-08-24T06:11:43.475Z,83.16
2018-08-24T06:14:14.760Z,83.54
2018-08-24T06:16:50.362Z,83.01
2018-08-24T06:19:21.760Z,82.88
2018-08-24T06:21:52.463Z,83.02
2018-08-24T06:24:23.148Z,82.38
2018-08-24T06:26:53.765Z,82.35
2018-08-24T06:29:24.469Z,82.17
2018-08-24T06:31:55.154Z,82.51
2018-08-24T06:34:25.821Z,82.26
2018-08-24T06:36:56.539Z,81.53
2018-08-24T06:39:27.183Z,81.78
2018-08-24T06:41:57.917Z,81.41
2018-08-24T06:44:28.452Z,81.37
2018-08-24T06:46:59.149Z,81.46
2018-08-24T06:49:29.891Z,81.48
2018-08-24T06:52:00.562Z,81.00
2018-08-24T06:54:31.302Z,80.78
2018-08-24T06:57:02.028Z,81.44
2018-08-24T06:59:33.579Z,80.57
2018-08-24T07:02:04.345Z,79.68
2018-08-24T07:04:35.052Z,79.46
2018-08-24T07:07:05.775Z,79.42
2018-08-24T07:09:38.495Z,79.88
2018-08-24T07:12:11.799Z,78.89
2018-08-24T07:14:43.133Z,78.85
2018-08-24T07:17:13.879Z,79.08
2018-08-24T07:19:44.530Z,78.02
2018-08-24T07:22:15.140Z,78.64
2018-08-24T07:24:45.795Z,79.62
2018-08-24T07:27:17.013Z,78.54
2018-08-24T07:29:47.838Z,78.06
2018-08-24T07:32:18.505Z,78.18
2018-08-24T07:34:49.183Z,78.25
2018-08-24T07:37:19.892Z,78.90
2018-08-24T07:39:50.502Z,80.36
2018-08-24T07:42:21.119Z,79.54
2018-08-24T07:44:52.899Z,78.99
2018-08-24T07:47:24.398Z,78.75
2018-08-24T07:49:55.089Z,78.80
2018-08-24T07:52:25.759Z,78.05
2018-08-24T07:54:56.371Z,78.25
2018-08-24T07:57:27.075Z,77.30
2018-08-24T07:59:57.800Z,76.74
2018-08-24T08:02:33.684Z,76.43
2018-08-24T08:05:04.346Z,75.52
2018-08-24T08:07:35.014Z,72.55
2018-08-24T08:10:06.337Z,73.76
2018-08-24T08:12:37.112Z,73.22
2018-08-24T08:15:08.879Z,72.94
2018-08-24T08:17:40.726Z,71.09
2018-08-24T08:20:11.560Z,70.05
2018-08-24T08:22:42.303Z,71.31
2018-08-24T08:25:12.931Z,70.78
2018-08-24T08:27:43.604Z,69.23
2018-08-24T08:30:14.243Z,68.07
2018-08-24T08:32:44.987Z,68.51
2018-08-24T08:35:15.622Z,69.25
2018-08-24T08:37:46.267Z,70.04
2018-08-24T08:40:16.882Z,71.12
2018-08-24T08:42:47.583Z,71.46
2018-08-24T08:45:18.316Z,70.59
2018-08-24T08:47:49.014Z,70.82
2018-08-24T08:50:19.670Z,70.49
2018-08-24T08:52:50.419Z,70.70
2018-08-24T08:55:21.034Z,70.79
2018-08-24T08:57:51.705Z,70.17
2018-08-24T09:00:22.315Z,69.69
2018-08-24T09:02:52.993Z,70.17
2018-08-24T09:05:23.641Z,71.27
2018-08-24T09:07:54.339Z,70.82
2018-08-24T09:10:24.913Z,68.87
2018-08-24T09:12:55.551Z,68.96
2018-08-24T09:15:26.147Z,67.48
2018-08-24T09:18:01.832Z,67.03
2018-08-24T09:20:37.740Z,67.90
2018-08-24T09:23:13.590Z,62.55
2018-08-24T09:25:49.469Z,63.30
2018-08-24T09:28:25.326Z,62.20
2018-08-24T09:31:01.121Z,61.17
2018-08-24T09:33:31.813Z,61.69
2018-08-24T09:36:06.536Z,61.56
2018-08-24T09:38:37.285Z,59.64
2018-08-24T09:41:08.043Z,57.10
2018-08-24T09:43:43.970Z,57.92
2018-08-24T09:46:14.767Z,54.88
2018-08-24T09:48:50.558Z,53.52
2018-08-24T09:51:27.653Z,52.67
2018-08-24T09:54:05.835Z,51.08
2018-08-24T09:56:37.539Z,53.42
2018-08-24T09:59:08.196Z,52.88
2018-08-24T10:01:44.024Z,50.70
2018-08-24T10:04:19.888Z,52.04
2018-08-24T10:06:55.751Z,50.61
2018-08-24T10:09:26.389Z,50.68
2018-08-24T10:11:57.039Z,50.85
2018-08-24T10:14:27.683Z,50.60
2018-08-24T10:16:58.357Z,49.78
2018-08-24T10:19:29.033Z,49.11
2018-08-24T10:21:59.691Z,48.90
2018-08-24T10:24:30.419Z,47.41
2018-08-24T10:27:01.066Z,44.43
2018-08-24T10:29:31.733Z,43.29
2018-08-24T10:32:02.533Z,43.80
2018-08-24T10:34:33.264Z,41.45
2018-08-24T10:37:03.913Z,41.65
2018-08-24T10:39:34.587Z,38.34
2018-08-24T10:42:05.420Z,40.21
2018-08-24T10:44:36.075Z,39.06
2018-08-24T10:47:06.885Z,38.12
2018-08-24T10:49:37.503Z,36.51
2018-08-24T10:52:08.436Z,35.61
2018-08-24T10:54:39.317Z,35.36
2018-08-24T10:57:09.929Z,34.67
2018-08-24T10:59:40.539Z,35.19
2018-08-24T11:02:11.276Z,34.94
2018-08-24T11:04:41.886Z,36.48
2018-08-24T11:07:12.622Z,37.66
2018-08-24T11:09:43.950Z,36.11
2018-08-24T11:12:14.575Z,33.46
2018-08-24T11:14:45.249Z,31.96
2018-08-24T11:17:15.903Z,34.10
2018-08-24T11:19:46.612Z,32.32
2018-08-24T11:22:17.245Z,34.19
2018-08-24T11:24:47.869Z,32.52
2018-08-24T11:27:18.542Z,33.73
2018-08-24T11:29:49.141Z,34.91
2018-08-24T11:32:19.874Z,34.33
2018-08-24T11:34:50.577Z,34.35
2018-08-24T11:37:21.259Z,32.27
2018-08-24T11:39:52.151Z,33.79
2018-08-24T11:42:22.845Z,32.72
2018-08-24T11:44:53.460Z,31.35
2018-08-24T11:47:24.161Z,30.76
2018-08-24T11:49:54.773Z,30.29
2018-08-24T11:52:25.514Z,31.70
2018-08-24T11:55:26.774Z,30.31
2018-08-24T11:57:57.456Z,30.28
2018-08-24T12:00:35.168Z,29.27
2018-08-24T12:03:06.015Z,29.38
2018-08-24T12:05:36.665Z,27.50
2018-08-24T12:08:07.604Z,27.09
2018-08-24T12:10:38.196Z,28.26
2018-08-24T12:13:08.957Z,28.51
2018-08-24T12:15:39.608Z,29.20
2018-08-24T12:18:10.290Z,27.94
2018-08-24T12:20:41.267Z,28.36
2018-08-24T12:23:11.894Z,27.95
2018-08-24T12:25:42.619Z,27.87
2018-08-24T12:28:13.341Z,29.70
2018-08-24T12:30:44.052Z,29.36
2018-08-24T12:33:14.720Z,29.06
2018-08-24T12:35:45.446Z,28.31
2018-08-24T12:38:16.060Z,26.52
2018-08-24T12:40:46.728Z,25.91
2018-08-24T12:43:17.507Z,26.29
2018-08-24T12:45:48.223Z,25.24
2018-08-24T12:48:18.951Z,25.36
2018-08-24T12:50:49.638Z,26.45
2018-08-24T12:53:20.294Z,26.30
2018-08-24T12:55:50.989Z,27.34
2018-08-24T12:58:21.636Z,27.53
2018-08-24T13:00:52.313Z,25.74
2018-08-24T13:03:22.904Z,27.64
2018-08-24T13:05:53.623Z,27.39
2018-08-24T13:08:24.291Z,28.16
2018-08-24T13:10:54.984Z,28.32
2018-08-24T13:13:25.616Z,28.38
2018-08-24T13:15:56.274Z,29.77
2018-08-24T13:18:26.960Z,28.94
2018-08-24T13:20:57.650Z,28.44
2018-08-24T13:23:28.276Z,29.13
2018-08-24T13:25:58.925Z,29.06
2018-08-24T13:28:29.623Z,29.79
2018-08-24T13:31:00.881Z,30.33
2018-08-24T13:33:31.647Z,28.69
2018-08-24T13:36:02.258Z,25.69
2018-08-24T13:38:33.020Z,26.33
2018-08-24T13:41:03.716Z,26.37
2018-08-24T13:43:35.368Z,27.17
2018-08-24T13:46:06.021Z,27.96
2018-08-24T13:48:36.733Z,28.46
2018-08-24T13:51:07.393Z,26.40
2018-08-24T13:53:38.168Z,27.26
2018-08-24T13:56:08.864Z,27.90
2018-08-24T13:58:39.579Z,27.09
2018-08-24T14:01:11.206Z,27.75
2018-08-24T14:03:41.957Z,28.62
2018-08-24T14:06:12.597Z,29.14
2018-08-24T14:08:43.194Z,30.66
2018-08-24T14:11:13.851Z,31.47
2018-08-24T14:13:44.520Z,32.11
2018-08-24T14:16:15.244Z,32.33
2018-08-24T14:18:45.917Z,32.95
2018-08-24T14:21:16.632Z,32.91
2018-08-24T14:23:47.576Z,33.07
2018-08-24T14:26:18.249Z,33.61
2018-08-24T14:28:55.852Z,33.78
2018-08-24T14:31:26.841Z,33.02
2018-08-24T14:33:57.835Z,32.99
2018-08-24T14:36:28.758Z,33.65
2018-08-24T14:38:59.425Z,32.91
2018-08-24T14:41:30.159Z,32.74
2018-08-24T14:44:00.808Z,31.88
2018-08-24T14:46:31.537Z,31.55
2018-08-24T14:49:02.199Z,30.43
2018-08-24T14:51:32.939Z,30.75
2018-08-24T14:54:03.592Z,30.88
2018-08-24T14:56:34.246Z,31.64
2018-08-24T14:59:04.900Z,31.68
2018-08-24T15:01:35.505Z,32.12
2018-08-24T15:04:06.212Z,32.21
2018-08-24T15:06:36.877Z,33.29
2018-08-24T15:09:10.476Z,33.96
2018-08-24T15:11:41.156Z,34.16
2018-08-24T15:14:11.915Z,34.31
2018-08-24T15:16:43.195Z,34.68
2018-08-24T15:19:13.927Z,33.96
2018-08-24T15:21:44.548Z,36.03
2018-08-24T15:24:15.244Z,34.43
2018-08-24T15:26:46.018Z,35.24
2018-08-24T15:29:16.800Z,35.23
2018-08-24T15:31:47.508Z,34.02
2018-08-24T15:34:18.413Z,35.12
2018-08-24T15:36:49.052Z,35.14
2018-08-24T15:39:19.679Z,35.06
2018-08-24T15:41:50.365Z,35.69
2018-08-24T15:44:20.975Z,33.99
2018-08-24T15:46:51.657Z,33.84
2018-08-24T15:49:22.294Z,34.00
2018-08-24T15:51:52.930Z,33.06
2018-08-24T15:54:23.545Z,32.58
2018-08-24T15:56:56.341Z,33.44
2018-08-24T15:59:27.147Z,32.83
2018-08-24T16:01:58.227Z,32.93
2018-08-24T16:04:29.097Z,32.86
2018-08-24T16:07:00.228Z,32.77
2018-08-24T16:09:30.918Z,32.20
2018-08-24T16:12:01.759Z,32.55
2018-08-24T16:14:32.420Z,33.33
2018-08-24T16:17:03.118Z,33.63
2018-08-24T16:19:33.920Z,33.30
2018-08-24T16:22:04.604Z,34.11
2018-08-24T16:24:35.597Z,34.11
2018-08-24T16:27:08.193Z,35.07
2018-08-24T16:29:38.876Z,35.60
2018-08-24T16:32:09.835Z,35.12
2018-08-24T16:34:40.678Z,35.22
2018-08-24T16:37:11.390Z,34.36
2018-08-24T16:39:42.080Z,34.85
2018-08-24T16:42:12.725Z,35.26
2018-08-24T16:44:43.379Z,33.80
2018-08-24T16:47:14.091Z,34.58
2018-08-24T16:49:44.772Z,33.92
2018-08-24T16:52:15.418Z,33.92
2018-08-24T16:54:46.073Z,33.84
2018-08-24T16:57:16.675Z,34.70
2018-08-24T16:59:47.355Z,34.41
2018-08-24T17:02:18.118Z,34.72
2018-08-24T17:04:48.806Z,35.81
2018-08-24T17:07:19.425Z,34.99
2018-08-24T17:09:50.040Z,35.14
2018-08-24T17:12:20.696Z,36.61
2018-08-24T17:14:51.354Z,35.77
2018-08-24T17:17:22.036Z,36.72
2018-08-24T17:19:52.635Z,37.26
2018-08-24T17:22:23.272Z,37.06
2018-08-24T17:24:53.962Z,36.56
2018-08-24T17:27:24.667Z,37.73
2018-08-24T17:29:55.311Z,37.68
2018-08-24T17:32:25.953Z,38.23
2018-08-24T17:34:56.634Z,37.91
2018-08-24T17:37:27.244Z,37.17
2018-08-24T17:39:57.894Z,38.58
2018-08-24T17:42:28.504Z,38.11
2018-08-24T17:44:59.091Z,38.03
2018-08-24T17:47:29.798Z,38.04
2018-08-24T17:50:00.528Z,38.47
2018-08-24T17:52:31.194Z,38.64
2018-08-24T17:55:01.861Z,37.50
2018-08-24T17:57:32.535Z,38.56
2018-08-24T18:00:03.223Z,39.34
2018-08-24T18:02:34.031Z,39.56
2018-08-24T18:05:05.178Z,39.40
2018-08-24T18:07:35.907Z,39.28
2018-08-24T18:10:07.789Z,37.49
2018-08-24T18:12:38.456Z,40.78
2018-08-24T18:15:09.230Z,39.05
2018-08-24T18:17:39.791Z,39.26
2018-08-24T18:20:10.451Z,39.82
2018-08-24T18:22:41.070Z,38.58
2018-08-24T18:25:11.759Z,38.40
2018-08-24T18:27:42.400Z,39.50
2018-08-24T18:30:13.171Z,39.57
2018-08-24T18:32:43.749Z,40.10
2018-08-24T18:35:14.459Z,39.34
2018-08-24T18:37:45.374Z,39.70
2018-08-24T18:40:16.024Z,39.89
2018-08-24T18:42:46.699Z,40.39
2018-08-24T18:45:17.384Z,40.60
2018-08-24T18:47:48.302Z,41.15
2018-08-24T18:50:19.325Z,40.97
2018-08-24T18:52:50.204Z,42.08
2018-08-24T18:55:20.902Z,41.40
2018-08-24T18:57:51.731Z,42.23
2018-08-24T19:00:22.394Z,42.38
2018-08-24T19:02:53.132Z,42.35
2018-08-24T19:05:24.418Z,42.43
2018-08-24T19:08:01.639Z,42.37
2018-08-24T19:10:36.307Z,42.26
2018-08-24T19:13:07.092Z,42.03
2018-08-24T19:15:38.072Z,42.63
2018-08-24T19:18:14.100Z,42.41
2018-08-24T19:20:49.768Z,42.80
2018-08-24T19:23:20.487Z,44.04
2018-08-24T19:25:51.330Z,44.34
2018-08-24T19:28:27.342Z,45.49
2018-08-24T19:30:58.243Z,44.81
2018-08-24T19:33:29.167Z,45.04
2018-08-24T19:36:00.185Z,44.06
2018-08-24T19:38:31.279Z,44.59
2018-08-24T19:41:07.075Z,45.08
2018-08-24T19:43:37.788Z,44.29
2018-08-24T19:46:08.480Z,44.05
2018-08-24T19:48:44.441Z,43.46
2018-08-24T19:51:15.084Z,43.65
2018-08-24T19:53:45.770Z,43.32
2018-08-24T19:56:16.457Z,43.81
2018-08-24T19:58:52.464Z,44.47
2018-08-24T20:01:23.027Z,44.02
2018-08-24T20:03:53.664Z,44.53
2018-08-24T20:06:29.624Z,44.11
2018-08-24T20:09:05.465Z,43.82
2018-08-24T20:11:39.086Z,44.23
2018-08-24T20:14:09.847Z,43.65
2018-08-24T20:16:45.542Z,44.84
2018-08-24T20:19:16.252Z,43.97
2018-08-24T20:21:46.953Z,44.77
2018-08-24T20:24:17.844Z,45.11
2018-08-24T20:26:49.261Z,44.85
2018-08-24T20:29:20.732Z,45.07
2018-08-24T20:31:51.394Z,45.46
2018-08-24T20:34:22.169Z,46.15
2018-08-24T20:36:52.874Z,45.50
2018-08-24T20:39:23.485Z,46.26
2018-08-24T20:41:54.338Z,46.76
2018-08-24T20:44:25.009Z,47.10
2018-08-24T20:46:55.733Z,47.21
2018-08-24T20:49:26.407Z,46.58
2018-08-24T20:51:57.028Z,46.45
2018-08-24T20:54:27.774Z,47.01
2018-08-24T20:56:58.389Z,48.46
2018-08-24T20:59:29.066Z,48.47
2018-08-24T21:01:59.709Z,47.69
2018-08-24T21:04:30.400Z,48.49
2018-08-24T21:07:01.108Z,48.90
2018-08-24T21:09:31.763Z,48.90
2018-08-24T21:12:02.469Z,48.86
2018-08-24T21:14:33.191Z,48.28
2018-08-24T21:17:03.993Z,48.67
2018-08-24T21:19:34.751Z,49.13
2018-08-24T21:22:05.528Z,48.83
2018-08-24T21:24:36.167Z,49.41
2018-08-24T21:27:07.088Z,49.11
2018-08-24T21:29:37.796Z,49.86
2018-08-24T21:32:08.499Z,50.33
2018-08-24T21:34:39.178Z,50.30
2018-08-24T21:37:09.792Z,50.00
2018-08-24T21:39:40.491Z,49.86
2018-08-24T21:42:11.333Z,50.57
2018-08-24T21:44:41.937Z,50.94
2018-08-24T21:47:12.569Z,51.02
2018-08-24T21:49:43.192Z,50.70
2018-08-24T21:52:13.857Z,51.06
2018-08-24T21:54:44.504Z,51.16
2018-08-24T21:57:15.164Z,50.61
2018-08-24T21:59:45.825Z,51.03
2018-08-24T22:02:16.495Z,50.88
2018-08-24T22:04:47.516Z,51.20
2018-08-24T22:07:18.208Z,51.46
2018-08-24T22:09:49.121Z,51.49
2018-08-24T22:12:19.826Z,51.03
2018-08-24T22:14:50.566Z,51.09
2018-08-24T22:17:21.280Z,51.26
2018-08-24T22:19:51.889Z,51.46
2018-08-24T22:22:22.587Z,51.37
2018-08-24T22:24:53.236Z,51.06
2018-08-24T22:27:23.976Z,51.54
2018-08-24T22:29:54.640Z,52.87
2018-08-24T22:32:25.298Z,51.37
2018-08-24T22:34:55.940Z,51.15
2018-08-24T22:37:26.539Z,52.15
2018-08-24T22:39:57.160Z,52.69
2018-08-24T22:42:27.791Z,51.49
2018-08-24T22:44:58.437Z,51.27
2018-08-24T22:47:29.125Z,50.63
2018-08-24T22:49:59.745Z,52.26
2018-08-24T22:52:30.372Z,52.50
2018-08-24T22:55:00.965Z,52.40
2018-08-24T22:57:31.704Z,51.49
2018-08-24T23:00:02.393Z,50.71
2018-08-24T23:02:33.023Z,51.32
2018-08-24T23:05:03.656Z,51.24
2018-08-24T23:07:34.352Z,51.71
2018-08-24T23:10:05.050Z,51.48
2018-08-24T23:12:35.681Z,51.30
2018-08-24T23:15:06.629Z,50.71
2018-08-24T23:17:37.367Z,51.27
2018-08-24T23:20:08.004Z,51.77
2018-08-24T23:22:38.721Z,51.18
2018-08-24T23:25:09.419Z,50.90
2018-08-24T23:27:40.055Z,51.15
2018-08-24T23:30:10.960Z,50.77
2018-08-24T23:32:41.836Z,50.61
2018-08-24T23:35:12.519Z,51.36
2018-08-24T23:37:43.163Z,50.59
2018-08-24T23:40:13.789Z,49.03
2018-08-24T23:42:44.489Z,49.57
2018-08-24T23:45:15.121Z,50.14
2018-08-24T23:47:45.854Z,49.66
2018-08-24T23:50:16.473Z,49.91
2018-08-24T23:52:47.148Z,49.14
2018-08-24T23:55:17.815Z,48.51
2018-08-24T23:57:48.413Z,48.93
